Time;durP1;ratioP1;P1;durP2;ratioP2;P2;SDS_P1;SDS_P2;PMS_P1;PMS_P2;Temp;Humidity;BMP_temperature;BMP_pressure;BME280_temperature;BME280_humidity;BME280_pressure;Samples;Min_cycle;Max_cycle;Signal;HPM_P1;HPM_P2
2023/12/16 00:01:21;;;;;;;9.00;5.80;;;;;;;-147.86;100.00;46112.77;105661;1258;65407;-41
2023/12/16 00:03:48;;;;;;;9.70;5.90;;;;;;;-147.86;100.00;46113.17;105692;1254;72496;-43
2023/12/16 00:06:19;;;;;;;6.90;5.10;;;;;;;-147.86;100.00;46115.52;105650;1259;59618;-43
2023/12/16 00:08:47;;;;;;;15.40;7.60;;;;;;;-147.86;100.00;46115.52;105697;1254;60218;-40
2023/12/16 00:11:14;;;;;;;9.90;6.70;;;;;;;-147.86;100.00;46113.96;105956;1254;72907;-43
2023/12/16 00:13:41;;;;;;;12.60;5.70;;;;;;;-147.86;100.00;46113.56;105976;1254;64139;-40
2023/12/16 00:16:08;;;;;;;7.30;4.50;;;;;;;-147.86;100.00;46114.34;105985;1250;71501;-41
2023/12/16 00:18:36;;;;;;;7.40;5.00;;;;;;;-147.86;100.00;46113.18;105936;1254;61155;-41
2023/12/16 00:21:03;;;;;;;5.50;4.70;;;;;;;-147.86;100.00;46113.56;105969;1254;59628;-40
2023/12/16 00:23:30;;;;;;;7.50;4.80;;;;;;;-147.86;100.00;46113.17;105999;1250;71649;-40
2023/12/16 00:25:57;;;;;;;6.30;4.60;;;;;;;-147.86;100.00;46114.35;105966;1254;65300;-41
2023/12/16 00:28:24;;;;;;;4.90;4.50;;;;;;;-147.86;100.00;46113.95;105948;1250;72721;-41
2023/12/16 00:30:51;;;;;;;6.40;4.40;;;;;;;-147.86;100.00;46115.13;105951;1254;61133;-41
2023/12/16 00:33:18;;;;;;;4.10;3.70;;;;;;;-147.86;100.00;46115.13;105990;1251;60725;-40
2023/12/16 00:35:45;;;;;;;5.20;4.70;;;;;;;-147.86;100.00;46117.09;106044;1251;73001;-42
2023/12/16 00:38:12;;;;;;;5.70;4.60;;;;;;;-147.86;100.00;46119.05;105969;1254;65589;-40
2023/12/16 00:40:39;;;;;;;6.00;4.80;;;;;;;-147.86;100.00;46118.27;105928;1254;72420;-39
2023/12/16 00:43:06;;;;;;;5.30;4.60;;;;;;;-147.86;100.00;46119.83;105955;1254;60905;-41
2023/12/16 00:45:33;;;;;;;4.90;4.40;;;;;;;-147.86;100.00;46118.27;105988;1251;59724;-43
2023/12/16 00:48:00;;;;;;;5.30;4.40;;;;;;;-147.86;100.00;46118.27;106003;1254;72942;-40
2023/12/16 00:50:27;;;;;;;4.40;4.00;;;;;;;-147.86;100.00;46121.01;106040;1250;65602;-41
2023/12/16 00:52:53;;;;;;;5.00;4.30;;;;;;;-147.86;100.00;46119.84;105960;1254;72610;-43
2023/12/16 00:55:20;;;;;;;6.40;4.90;;;;;;;-147.86;100.00;46119.84;105918;1253;60480;-42
2023/12/16 00:57:47;;;;;;;4.50;4.10;;;;;;;-147.86;100.00;46121.40;105955;1250;60133;-42
2023/12/16 01:00:15;;;;;;;6.40;4.50;;;;;;;-147.86;100.00;46122.18;105927;1251;73032;-43
2023/12/16 01:02:41;;;;;;;4.90;4.20;;;;;;;-147.86;100.00;46119.05;106050;1255;65544;-39
2023/12/16 01:05:09;;;;;;;5.40;4.30;;;;;;;-147.86;100.00;46119.44;105943;1254;72552;-42
2023/12/16 01:07:36;;;;;;;5.90;4.30;;;;;;;-147.86;100.00;46120.62;106021;1253;59612;-44
2023/12/16 01:10:05;;;;;;;5.10;4.20;;;;;;;-147.86;100.00;46121.40;105973;1250;60263;-44
2023/12/16 01:12:32;;;;;;;6.00;4.90;;;;;;;-147.86;100.00;46117.88;105984;1250;73055;-40
2023/12/16 01:14:59;;;;;;;6.50;4.70;;;;;;;-147.86;100.00;46121.01;105899;1254;65492;-43
2023/12/16 01:17:26;;;;;;;4.60;4.20;;;;;;;-147.86;100.00;46120.23;105973;1250;72503;-41
2023/12/16 01:19:52;;;;;;;6.40;4.70;;;;;;;-147.86;100.00;46121.79;105994;1254;59625;-44
2023/12/16 01:22:19;;;;;;;5.80;4.70;;;;;;;-147.86;100.00;46122.18;105988;1251;60319;-42
2023/12/16 01:24:46;;;;;;;5.50;4.60;;;;;;;-147.86;100.00;46121.79;105951;1254;73018;-42
2023/12/16 01:27:13;;;;;;;5.90;4.30;;;;;;;-147.86;100.00;46122.57;105994;1253;65548;-41
2023/12/16 01:29:40;;;;;;;8.10;4.80;;;;;;;-147.86;100.00;46121.79;105985;1250;72471;-43
2023/12/16 01:32:07;;;;;;;7.30;4.60;;;;;;;-147.86;100.00;46122.97;105949;1253;60945;-40
2023/12/16 01:34:34;;;;;;;5.40;4.50;;;;;;;-147.86;100.00;46124.54;106065;1250;60830;-43
2023/12/16 01:37:01;;;;;;;6.10;5.00;;;;;;;-147.86;100.00;46123.36;105990;1254;72909;-42
2023/12/16 01:39:28;;;;;;;7.30;5.10;;;;;;;-147.86;100.00;46125.71;106008;1254;65482;-43
2023/12/16 01:41:55;;;;;;;9.20;5.30;;;;;;;-147.86;100.00;46125.71;105966;1251;72613;-43
2023/12/16 01:44:22;;;;;;;8.40;5.40;;;;;;;-147.86;100.00;46126.50;105999;1254;61152;-40
2023/12/16 01:46:50;;;;;;;9.10;6.00;;;;;;;-147.86;100.00;46127.67;105978;1250;60342;-42
2023/12/16 01:49:17;;;;;;;11.60;5.50;;;;;;;-147.86;100.00;46126.49;106021;1253;73043;-42
2023/12/16 01:51:44;;;;;;;12.10;6.60;;;;;;;-147.86;100.00;46125.71;105969;1254;65551;-39
2023/12/16 01:54:12;;;;;;;7.00;6.00;;;;;;;-147.86;100.00;46124.54;105958;1250;72626;-43
2023/12/16 01:56:39;;;;;;;6.20;5.10;;;;;;;-147.86;100.00;46127.67;105966;1254;61168;-39
2023/12/16 01:59:06;;;;;;;7.80;4.40;;;;;;;-147.86;100.00;46128.06;106026;1250;59689;-43
2023/12/16 02:01:32;;;;;;;7.60;6.10;;;;;;;-147.86;100.00;46127.67;106020;1254;72021;-41
2023/12/16 02:03:59;;;;;;;10.60;6.50;;;;;;;-147.86;100.00;46125.32;106018;1254;65521;-40
2023/12/16 02:06:27;;;;;;;9.90;5.90;;;;;;;-147.86;100.00;46128.45;105929;1250;72498;-43
2023/12/16 02:08:53;;;;;;;10.00;6.50;;;;;;;-147.86;100.00;46126.89;105819;1257;60973;-43
2023/12/16 02:11:20;;;;;;;9.40;6.30;;;;;;;-147.86;100.00;46128.84;105958;1250;59596;-42
2023/12/16 02:13:49;;;;;;;11.00;7.30;;;;;;;-147.86;100.00;46132.38;105959;1250;73030;-42
2023/12/16 02:16:16;;;;;;;9.40;6.30;;;;;;;-147.86;100.00;46129.24;105986;1254;65354;-41
2023/12/16 02:18:43;;;;;;;12.30;6.80;;;;;;;-147.86;100.00;46129.63;106011;1256;72576;-42
2023/12/16 02:21:09;;;;;;;7.80;7.00;;;;;;;-147.86;100.00;46130.02;105986;1254;61114;-39
2023/12/16 02:23:38;;;;;;;9.90;7.30;;;;;;;-147.86;100.00;46131.20;105988;1250;60145;-45
2023/12/16 02:26:05;;;;;;;11.50;8.30;;;;;;;-147.86;100.00;46132.76;105852;1254;72920;-42
2023/12/16 02:28:32;;;;;;;10.60;6.70;;;;;;;-147.86;100.00;46131.20;105729;1254;65517;-40
2023/12/16 02:30:59;;;;;;;11.70;7.10;;;;;;;-147.86;100.00;46132.76;105844;1250;72509;-41
2023/12/16 02:33:26;;;;;;;14.30;7.50;;;;;;;-147.86;100.00;46131.59;105942;1254;59528;-45
2023/12/16 02:35:53;;;;;;;10.80;7.40;;;;;;;-147.86;100.00;46131.59;105975;1250;60289;-43
2023/12/16 02:38:20;;;;;;;11.90;8.00;;;;;;;-147.86;100.00;46132.77;106002;1251;72993;-43
2023/12/16 02:40:48;;;;;;;10.90;7.80;;;;;;;-147.86;100.00;46133.16;106035;1256;65610;-42
2023/12/16 02:43:15;;;;;;;9.90;7.50;;;;;;;-147.86;100.00;46137.47;105998;1250;72590;-45
2023/12/16 02:45:42;;;;;;;18.10;7.60;;;;;;;-147.86;100.00;46135.90;105767;1258;60324;-44
2023/12/16 02:48:09;;;;;;;12.70;8.60;;;;;;;-147.86;100.00;46137.86;106013;1250;60409;-41
2023/12/16 02:50:36;;;;;;;11.40;8.70;;;;;;;-147.86;100.00;46137.08;105951;1251;73701;-40
2023/12/16 02:53:03;;;;;;;11.80;7.90;;;;;;;-147.86;100.00;46137.07;105921;1256;65695;-41
2023/12/16 02:55:30;;;;;;;17.20;7.90;;;;;;;-147.86;100.00;46136.29;105906;1250;72766;-40
2023/12/16 02:57:57;;;;;;;13.90;8.70;;;;;;;-147.86;100.00;46134.73;105930;1254;60828;-40
2023/12/16 03:00:24;;;;;;;15.10;9.20;;;;;;;-147.86;100.00;46137.86;105957;1250;60623;-41
2023/12/16 03:02:50;;;;;;;16.60;9.40;;;;;;;-147.86;100.00;46138.25;105973;1254;73821;-41
2023/12/16 03:05:17;;;;;;;15.30;9.20;;;;;;;-147.86;100.00;46138.25;105932;1255;65383;-43
2023/12/16 03:07:44;;;;;;;14.90;8.90;;;;;;;-147.86;100.00;46139.04;105972;1250;72698;-43
2023/12/16 03:10:11;;;;;;;14.30;9.30;;;;;;;-147.86;100.00;46137.07;105893;1254;60397;-44
2023/12/16 03:12:38;;;;;;;16.30;9.80;;;;;;;-147.86;100.00;46136.68;105941;1250;60441;-44
2023/12/16 03:15:07;;;;;;;13.40;9.20;;;;;;;-147.86;100.00;46138.25;105994;1250;73780;-42
2023/12/16 03:17:35;;;;;;;15.90;10.30;;;;;;;-147.86;100.00;46137.86;105949;1254;64558;-43
2023/12/16 03:20:03;;;;;;;13.80;9.40;;;;;;;-147.86;100.00;46138.64;105933;1250;72499;-41
2023/12/16 03:22:30;;;;;;;14.90;9.00;;;;;;;-147.86;100.00;46138.64;105989;1254;60997;-42
2023/12/16 03:24:57;;;;;;;17.30;9.10;;;;;;;-147.86;100.00;46139.04;105968;1250;60434;-41
2023/12/16 03:27:24;;;;;;;20.30;9.40;;;;;;;-147.86;100.00;46140.21;105911;1250;74087;-44
2023/12/16 03:29:51;;;;;;;16.90;9.40;;;;;;;-147.86;100.00;46141.78;105950;1254;65360;-41
2023/12/16 03:32:18;;;;;;;19.30;10.80;;;;;;;-147.86;100.00;46140.21;105952;1255;72685;-43
2023/12/16 03:34:44;;;;;;;17.60;8.80;;;;;;;-147.86;100.00;46142.17;106034;1250;61128;-40
2023/12/16 03:37:12;;;;;;;14.70;9.20;;;;;;;-147.86;100.00;46140.21;105995;1250;61026;-44
2023/12/16 03:39:40;;;;;;;14.50;9.50;;;;;;;-147.86;100.00;46141.78;105990;1251;73769;-40
2023/12/16 03:42:07;;;;;;;15.30;9.60;;;;;;;-147.86;100.00;46140.99;106015;1254;64126;-43
2023/12/16 03:44:34;;;;;;;20.90;10.00;;;;;;;-147.86;100.00;46142.17;105984;1251;73073;-40
2023/12/16 03:47:01;;;;;;;15.30;10.20;;;;;;;-147.86;100.00;46141.77;105947;1256;61137;-40
2023/12/16 03:49:29;;;;;;;19.40;9.60;;;;;;;-147.86;100.00;46142.56;105938;1250;60457;-40
2023/12/16 03:51:56;;;;;;;15.60;9.40;;;;;;;-147.86;100.00;46143.34;105988;1250;73804;-43
2023/12/16 03:54:23;;;;;;;17.50;10.10;;;;;;;-147.86;100.00;46146.09;105933;1255;65508;-40
2023/12/16 03:56:50;;;;;;;20.20;9.60;;;;;;;-147.86;100.00;46146.09;105995;1251;72669;-41
2023/12/16 03:59:16;;;;;;;19.40;9.30;;;;;;;-147.86;100.00;46145.70;105991;1254;60939;-43
2023/12/16 04:01:44;;;;;;;17.80;9.50;;;;;;;-147.86;100.00;46146.48;106029;1251;60441;-41
2023/12/16 04:04:12;;;;;;;16.80;10.60;;;;;;;-147.86;100.00;46143.74;106011;1250;72345;-43
2023/12/16 04:06:39;;;;;;;14.80;9.90;;;;;;;-147.86;100.00;46148.04;105963;1254;65866;-40
2023/12/16 04:09:06;;;;;;;17.10;9.30;;;;;;;-147.86;100.00;46149.23;105998;1250;72718;-42
2023/12/16 04:11:33;;;;;;;15.70;9.80;;;;;;;-147.86;100.00;46147.27;105896;1255;60341;-42
2023/12/16 04:14:00;;;;;;;15.00;9.60;;;;;;;-147.86;100.00;46146.48;105958;1250;60444;-43
2023/12/16 04:16:27;;;;;;;16.50;9.30;;;;;;;-147.86;100.00;46151.18;105940;1255;73666;-42
2023/12/16 04:18:54;;;;;;;14.40;8.90;;;;;;;-147.86;100.00;46151.57;106036;1255;65552;-44
2023/12/16 04:21:21;;;;;;;14.80;8.70;;;;;;;-147.86;100.00;46149.62;105977;1250;72713;-42
2023/12/16 04:23:48;;;;;;;18.20;9.10;;;;;;;-147.86;100.00;46151.96;105992;1255;60329;-42
2023/12/16 04:26:15;;;;;;;13.30;8.70;;;;;;;-147.86;100.00;46153.93;105947;1250;60445;-44
2023/12/16 04:28:42;;;;;;;13.30;8.60;;;;;;;-147.86;100.00;46154.71;105983;1254;72777;-43
2023/12/16 04:31:13;;;;;;;20.00;7.60;;;;;;;-147.86;100.00;46153.93;106007;1254;65380;-45
2023/12/16 04:33:40;;;;;;;16.20;7.90;;;;;;;-147.86;100.00;46155.88;105951;1255;71109;-40
2023/12/16 04:36:13;;;;;;;18.30;7.80;;;;;;;-147.86;100.00;46152.74;106031;1255;60335;-42
2023/12/16 04:38:40;;;;;;;15.70;9.00;;;;;;;-147.86;100.00;46150.01;105986;1251;60441;-41
2023/12/16 04:41:10;;;;;;;15.50;8.10;;;;;;;-147.86;100.00;46152.75;106008;1251;73885;-43
2023/12/16 04:43:37;;;;;;;12.30;7.60;;;;;;;-147.86;100.00;46145.70;105967;1256;65471;-42
2023/12/16 04:46:04;;;;;;;15.30;8.50;;;;;;;-147.86;100.00;46143.34;106113;1250;72405;-42
2023/12/16 04:48:31;;;;;;;18.40;8.90;;;;;;;-147.86;100.00;46140.21;105970;1255;60310;-43
2023/12/16 04:51:05;;;;;;;15.30;9.00;;;;;;;-147.86;100.00;46137.86;106000;1250;60441;-43
2023/12/16 04:53:33;;;;;;;15.00;9.20;;;;;;;-147.86;100.00;46137.08;106003;1254;72087;-42
2023/12/16 04:56:00;;;;;;;19.00;10.10;;;;;;;-147.86;100.00;46138.64;106021;1255;65445;-39
2023/12/16 04:58:27;;;;;;;18.00;9.10;;;;;;;-147.86;100.00;46139.03;106013;1250;72571;-40
2023/12/16 05:00:53;;;;;;;19.90;10.00;;;;;;;-147.86;100.00;46135.90;105956;1255;60303;-41
2023/12/16 05:03:20;;;;;;;22.60;9.90;;;;;;;-147.86;100.00;46136.29;106020;1251;60431;-41
2023/12/16 05:05:47;;;;;;;22.50;10.70;;;;;;;-147.86;100.00;46139.82;105973;1250;73825;-42
2023/12/16 05:08:14;;;;;;;19.50;9.90;;;;;;;-147.86;100.00;46135.11;105970;1256;65518;-42
2023/12/16 05:10:42;;;;;;;18.20;9.50;;;;;;;-147.86;100.00;46138.25;105951;1251;72440;-44
2023/12/16 05:13:11;;;;;;;23.70;9.60;;;;;;;-147.86;100.00;46137.07;105975;1256;60409;-41
2023/12/16 05:15:38;;;;;;;14.50;8.80;;;;;;;-147.86;100.00;46139.43;106103;1255;60530;-42
2023/12/16 05:18:06;;;;;;;19.20;10.20;;;;;;;-147.86;100.00;46139.04;105988;1250;71608;-39
2023/12/16 05:20:33;;;;;;;18.60;10.50;;;;;;;-147.86;100.00;46138.64;105968;1250;65839;-41
2023/12/16 05:23:00;;;;;;;15.70;8.90;;;;;;;-147.86;100.00;46139.04;105975;1251;72743;-40
2023/12/16 05:25:28;;;;;;;21.60;8.20;;;;;;;-147.86;100.00;46140.21;105942;1250;61174;-41
2023/12/16 05:27:56;;;;;;;12.40;8.40;;;;;;;-147.86;100.00;46139.82;106055;1250;60649;-43
2023/12/16 05:30:22;;;;;;;18.30;9.20;;;;;;;-147.86;100.00;46140.99;105963;1253;73782;-43
2023/12/16 05:32:49;;;;;;;17.70;8.70;;;;;;;-147.86;100.00;46142.17;105940;1255;65462;-42
2023/12/16 05:35:19;;;;;;;16.40;8.80;;;;;;;-147.86;100.00;46143.73;105902;1251;72633;-40
2023/12/16 05:37:47;;;;;;;14.70;8.90;;;;;;;-147.86;100.00;46141.78;105938;1254;60839;-40
2023/12/16 05:40:14;;;;;;;17.30;7.50;;;;;;;-147.86;100.00;46144.91;105963;1252;60552;-41
2023/12/16 05:42:41;;;;;;;13.90;7.70;;;;;;;-147.86;100.00;46143.74;105987;1251;73883;-40
2023/12/16 05:45:08;;;;;;;16.20;8.30;;;;;;;-147.86;100.00;46144.13;106054;1256;65495;-42
2023/12/16 05:47:35;;;;;;;12.20;6.50;;;;;;;-147.86;100.00;46142.95;106036;1252;72679;-41
2023/12/16 05:50:03;;;;;;;11.60;8.00;;;;;;;-147.86;100.00;46142.96;106024;1251;61136;-40
2023/12/16 05:52:31;;;;;;;11.30;7.00;;;;;;;-147.86;100.00;46144.13;105970;1250;60510;-43
2023/12/16 05:54:58;;;;;;;13.60;6.70;;;;;;;-147.86;100.00;46143.74;105995;1254;73598;-44
2023/12/16 05:57:25;;;;;;;13.40;7.40;;;;;;;-147.86;100.00;46141.78;105950;1256;65351;-42
2023/12/16 05:59:52;;;;;;;11.90;6.50;;;;;;;-147.86;100.00;46142.56;106034;1251;72456;-44
2023/12/16 06:02:19;;;;;;;8.20;6.10;;;;;;;-147.86;100.00;46138.64;105955;1256;60415;-41
2023/12/16 06:04:46;;;;;;;12.60;7.50;;;;;;;-147.86;100.00;46139.04;106011;1250;60473;-39
2023/12/16 06:07:13;;;;;;;9.80;6.50;;;;;;;-147.86;100.00;46134.33;105979;1254;72825;-42
2023/12/16 06:09:39;;;;;;;12.50;7.30;;;;;;;-147.86;100.00;46137.47;105959;1255;65355;-41
2023/12/16 06:12:07;;;;;;;10.10;6.10;;;;;;;-147.86;100.00;46133.16;105996;1250;72688;-42
2023/12/16 06:14:34;;;;;;;11.30;7.00;;;;;;;-147.86;100.00;46133.55;105965;1254;60329;-44
2023/12/16 06:17:01;;;;;;;15.50;7.50;;;;;;;-147.86;100.00;46131.59;105933;1250;60536;-40
2023/12/16 06:19:28;;;;;;;15.80;7.90;;;;;;;-147.86;100.00;46131.98;105993;1250;74102;-40
2023/12/16 06:21:55;;;;;;;9.10;6.60;;;;;;;-147.86;100.00;46132.77;105934;1254;65363;-40
2023/12/16 06:24:22;;;;;;;13.80;6.80;;;;;;;-147.86;100.00;46133.16;105969;1251;72444;-44
2023/12/16 06:26:52;;;;;;;10.70;7.10;;;;;;;-147.86;100.00;46132.37;105930;1256;61249;-44
2023/12/16 06:29:19;;;;;;;10.30;7.00;;;;;;;-147.86;100.00;46132.37;106008;1256;60422;-42
2023/12/16 06:31:46;;;;;;;10.80;7.00;;;;;;;-147.86;100.00;46131.98;105968;1250;73823;-44
2023/12/16 06:34:13;;;;;;;12.10;7.70;;;;;;;-147.86;100.00;46131.20;105939;1254;65467;-40
2023/12/16 06:36:40;;;;;;;12.20;7.70;;;;;;;-147.86;100.00;46130.41;105944;1255;72625;-42
2023/12/16 06:39:08;;;;;;;11.50;7.40;;;;;;;-147.86;100.00;46135.51;105950;1254;60965;-41
2023/12/16 06:41:34;;;;;;;14.20;7.70;;;;;;;-147.86;100.00;46133.16;106013;1250;60444;-40
2023/12/16 06:44:02;;;;;;;12.30;8.10;;;;;;;-147.86;100.00;46132.76;105961;1255;73707;-42
2023/12/16 06:46:29;;;;;;;14.10;8.20;;;;;;;-147.86;100.00;46131.98;105956;1254;65347;-43
2023/12/16 06:48:55;;;;;;;14.90;7.40;;;;;;;-147.86;100.00;46133.94;105990;1250;72684;-45
2023/12/16 06:51:23;;;;;;;9.40;6.50;;;;;;;-147.86;100.00;46135.51;105982;1254;60430;-39
2023/12/16 06:53:49;;;;;;;14.30;8.00;;;;;;;-147.86;100.00;46132.76;105972;1250;60441;-40
2023/12/16 06:56:16;;;;;;;10.70;6.80;;;;;;;-147.86;100.00;46133.16;105929;1250;73816;-42
2023/12/16 06:58:43;;;;;;;13.00;7.60;;;;;;;-147.86;100.00;46134.73;106032;1254;65598;-39
2023/12/16 07:01:13;;;;;;;12.60;8.30;;;;;;;-147.86;100.00;46134.73;105989;1250;72684;-44
2023/12/16 07:03:40;;;;;;;10.60;6.40;;;;;;;-147.86;100.00;46135.90;105951;1256;60425;-40
2023/12/16 07:06:08;;;;;;;12.00;7.40;;;;;;;-147.86;100.00;46134.73;105981;1250;60412;-43
2023/12/16 07:08:36;;;;;;;11.90;8.00;;;;;;;-147.86;100.00;46133.16;105967;1255;73876;-42
2023/12/16 07:11:03;;;;;;;14.20;7.50;;;;;;;-147.86;100.00;46133.55;106002;1255;65499;-45
2023/12/16 07:13:30;;;;;;;13.80;6.90;;;;;;;-147.86;100.00;46133.94;105987;1255;72809;-42
2023/12/16 07:15:57;;;;;;;12.60;7.90;;;;;;;-147.86;100.00;46135.51;105958;1254;60397;-44
2023/12/16 07:18:24;;;;;;;13.90;7.90;;;;;;;-147.86;100.00;46133.94;105994;1250;60438;-42
2023/12/16 07:20:51;;;;;;;13.20;7.90;;;;;;;-147.86;100.00;46134.33;105959;1253;73780;-41
2023/12/16 07:23:18;;;;;;;18.40;7.50;;;;;;;-147.86;100.00;46133.16;105945;1256;65551;-41
2023/12/16 07:25:45;;;;;;;15.00;8.00;;;;;;;-147.86;100.00;46132.76;105895;1250;72651;-44
2023/12/16 07:28:12;;;;;;;17.00;8.00;;;;;;;-147.86;100.00;46135.90;106009;1255;60963;-44
2023/12/16 07:30:39;;;;;;;16.60;7.40;;;;;;;-147.86;100.00;46135.11;105946;1251;60431;-46
2023/12/16 07:33:06;;;;;;;13.10;6.90;;;;;;;-147.86;100.00;46133.94;105998;1251;73775;-43
2023/12/16 07:35:34;;;;;;;16.50;8.00;;;;;;;-147.86;100.00;46132.38;105981;1256;65445;-42
2023/12/16 07:38:01;;;;;;;14.60;7.30;;;;;;;-147.86;100.00;46131.20;105938;1251;72698;-42
2023/12/16 07:40:29;;;;;;;15.50;8.10;;;;;;;-147.86;100.00;46127.28;105908;1256;61086;-43
2023/12/16 07:42:56;;;;;;;11.10;7.30;;;;;;;-147.86;100.00;46123.36;105953;1250;60409;-46
2023/12/16 07:45:23;;;;;;;17.30;7.60;;;;;;;-147.86;100.00;46114.74;105991;1251;73884;-42
2023/12/16 07:47:50;;;;;;;13.00;7.30;;;;;;;-147.86;100.00;46110.04;105952;1255;65351;-43
2023/12/16 07:50:19;;;;;;;9.60;6.50;;;;;;;-147.86;100.00;46107.29;105938;1251;72696;-43
2023/12/16 07:52:46;;;;;;;10.60;6.80;;;;;;;-147.86;100.00;46104.95;105966;1255;61667;-43
2023/12/16 07:55:13;;;;;;;9.00;6.00;;;;;;;-147.86;100.00;46104.94;105966;1250;60463;-43
2023/12/16 07:57:40;;;;;;;10.20;7.00;;;;;;;-147.86;100.00;46100.63;106017;1250;73791;-44
2023/12/16 08:00:09;;;;;;;13.30;6.70;;;;;;;-147.86;100.00;46098.67;105986;1256;65369;-44
2023/12/16 08:02:36;;;;;;;10.60;6.90;;;;;;;-147.86;100.00;46094.36;105944;1251;73365;-43
2023/12/16 08:05:04;;;;;;;11.60;7.10;;;;;;;-147.86;100.00;46095.93;105977;1256;60853;-48
2023/12/16 08:07:31;;;;;;;9.00;5.80;;;;;;;-147.86;100.00;46090.84;106017;1255;60399;-47
2023/12/16 08:09:58;;;;;;;11.00;6.40;;;;;;;-147.86;100.00;46087.70;105981;1251;73898;-45
2023/12/16 08:12:26;;;;;;;14.90;6.40;;;;;;;-147.86;100.00;46088.48;105961;1256;65529;-45
2023/12/16 08:14:52;;;;;;;10.20;6.20;;;;;;;-147.86;100.00;46086.91;106034;1251;72899;-46
2023/12/16 08:17:19;;;;;;;11.90;6.50;;;;;;;-147.86;100.00;46084.96;105913;1254;60422;-47
2023/12/16 08:19:47;;;;;;;11.40;6.60;;;;;;;-147.86;100.00;46084.57;106003;1251;60442;-46
2023/12/16 08:22:14;;;;;;;10.50;6.20;;;;;;;-147.86;100.00;46079.08;105969;1254;73768;-48
2023/12/16 08:24:42;;;;;;;8.40;6.20;;;;;;;-147.86;100.00;46079.08;106040;1256;64579;-49
2023/12/16 08:27:08;;;;;;;11.30;6.50;;;;;;;-147.86;100.00;46075.16;105912;1250;72810;-48
2023/12/16 08:29:37;;;;;;;13.30;6.10;;;;;;;-147.86;100.00;46077.90;106009;1255;60870;-44
2023/12/16 08:32:05;;;;;;;11.70;6.40;;;;;;;-147.86;100.00;46075.55;106010;1250;60646;-47
2023/12/16 08:34:33;;;;;;;10.90;6.30;;;;;;;-147.86;100.00;46075.16;105982;1256;73783;-49
2023/12/16 08:37:01;;;;;;;12.00;6.00;;;;;;;-147.86;100.00;46073.59;105986;1256;64229;-48
2023/12/16 08:39:28;;;;;;;12.60;6.50;;;;;;;-147.86;100.00;46075.95;105999;1250;72597;-51
2023/12/16 08:41:56;;;;;;;10.40;5.90;;;;;;;-147.86;100.00;46076.73;105962;1250;60986;-49
2023/12/16 08:44:23;;;;;;;13.70;6.00;;;;;;;-147.86;100.00;46077.90;105982;1250;60534;-47
2023/12/16 08:46:50;;;;;;;9.40;5.70;;;;;;;-147.86;100.00;46079.08;105965;1253;73550;-53
2023/12/16 08:49:17;;;;;;;8.90;5.50;;;;;;;-147.86;100.00;46077.51;105942;1256;64719;-50
2023/12/16 08:51:45;;;;;;;10.30;6.20;;;;;;;-147.86;100.00;46080.26;105973;1256;72610;-50
2023/12/16 08:54:12;;;;;;;10.80;6.40;;;;;;;-147.86;100.00;46077.90;105983;1254;60438;-47
2023/12/16 08:56:39;;;;;;;15.10;6.50;;;;;;;-147.86;100.00;46077.90;105974;1251;60412;-48
2023/12/16 08:59:06;;;;;;;12.80;6.70;;;;;;;-147.86;100.00;46080.25;105968;1254;73907;-48
2023/12/16 09:01:33;;;;;;;10.50;6.20;;;;;;;-147.86;100.00;46079.08;105962;1256;64744;-47
2023/12/16 09:04:00;;;;;;;11.20;7.00;;;;;;;-147.86;100.00;46080.65;105926;1250;72501;-50
2023/12/16 09:06:28;;;;;;;13.00;7.20;;;;;;;-147.86;100.00;46082.61;105945;1254;60338;-52
2023/12/16 09:08:55;;;;;;;11.30;6.90;;;;;;;-147.86;100.00;46082.21;105989;1255;60973;-49
2023/12/16 09:11:22;;;;;;;12.60;6.90;;;;;;;-147.86;100.00;46079.08;105978;1255;73886;-48
2023/12/16 09:13:49;;;;;;;11.30;6.80;;;;;;;-147.86;100.00;46079.07;105977;1255;64644;-51
2023/12/16 09:16:16;;;;;;;11.10;6.90;;;;;;;-147.86;100.00;46080.65;105957;1255;71732;-46
2023/12/16 09:18:43;;;;;;;15.80;7.90;;;;;;;-147.86;100.00;46079.86;105984;1256;60549;-52
2023/12/16 09:21:10;;;;;;;12.40;7.00;;;;;;;-147.86;100.00;46081.43;105997;1251;60396;-55
2023/12/16 09:23:36;;;;;;;15.20;7.40;;;;;;;-147.86;100.00;46082.21;105666;1257;72683;-49
2023/12/16 09:26:05;;;;;;;11.70;6.60;;;;;;;-147.86;100.00;46080.65;106016;1254;64746;-49
2023/12/16 09:28:31;;;;;;;11.90;6.40;;;;;;;-147.86;100.00;46083.00;106081;1257;72694;-51
2023/12/16 09:30:59;;;;;;;10.70;6.70;;;;;;;-147.86;100.00;46084.57;106025;1263;60324;-48
2023/12/16 09:33:26;;;;;;;10.20;6.90;;;;;;;-147.86;100.00;46083.78;105991;1250;60527;-51
2023/12/16 09:35:53;;;;;;;16.80;7.90;;;;;;;-147.86;100.00;46083.78;106024;1253;73798;-53
2023/12/16 09:38:20;;;;;;;11.40;7.60;;;;;;;-147.86;100.00;46083.39;105992;1254;64535;-49
2023/12/16 09:40:47;;;;;;;11.90;7.60;;;;;;;-147.86;100.00;46083.00;105962;1250;72604;-52
2023/12/16 09:43:16;;;;;;;13.40;7.80;;;;;;;-147.86;100.00;46083.39;106114;1254;60388;-48
2023/12/16 09:45:44;;;;;;;14.50;8.40;;;;;;;-147.86;100.00;46084.96;105958;1256;60498;-55
2023/12/16 09:48:13;;;;;;;12.10;8.30;;;;;;;-147.86;100.00;46083.39;106002;1255;73977;-53
2023/12/16 09:50:40;;;;;;;13.10;8.10;;;;;;;-147.86;100.00;46088.09;105798;1254;64730;-52
2023/12/16 09:53:07;;;;;;;18.80;9.50;;;;;;;-147.86;100.00;46090.05;105744;1250;72615;-52
2023/12/16 09:55:33;;;;;;;16.90;10.40;;;;;;;-147.86;100.00;46091.62;105845;1254;60412;-49
2023/12/16 09:58:01;;;;;;;19.00;10.00;;;;;;;-147.86;100.00;46097.89;106022;1257;60537;-52
2023/12/16 10:00:30;;;;;;;15.70;9.10;;;;;;;-147.86;100.00;46100.63;105892;1257;73893;-48
2023/12/16 10:02:57;;;;;;;19.40;9.80;;;;;;;-147.86;100.00;46105.73;105951;1254;64767;-54
2023/12/16 10:05:26;;;;;;;17.00;10.10;;;;;;;-147.86;100.00;46110.82;106014;1256;72525;-50
2023/12/16 10:08:01;;;;;;;19.30;9.50;;;;;;;-147.86;100.00;46116.70;106027;1256;61027;-53
2023/12/16 10:10:28;;;;;;;22.10;10.50;;;;;;;-147.86;100.00;46121.40;105980;1256;60464;-51
2023/12/16 10:12:55;;;;;;;18.90;10.20;;;;;;;-147.86;100.00;46126.50;105933;1251;73868;-53
2023/12/16 10:15:32;;;;;;;18.50;10.50;;;;;;;-147.86;100.00;46129.23;105982;1256;64519;-53
2023/12/16 10:18:00;;;;;;;26.00;10.60;;;;;;;-147.86;100.00;46134.33;105961;1256;71967;-48
2023/12/16 10:20:28;;;;;;;18.10;10.40;;;;;;;-147.86;100.00;46136.29;105994;1256;60444;-52
2023/12/16 10:22:55;;;;;;;16.50;10.20;;;;;;;-147.86;100.00;46137.46;105965;1257;60507;-51
2023/12/16 10:25:22;;;;;;;22.10;11.70;;;;;;;-147.86;100.00;46139.43;105993;1254;73816;-52
2023/12/16 10:27:49;;;;;;;18.80;10.70;;;;;;;-147.86;100.00;46139.82;105865;1256;64547;-54
2023/12/16 10:30:16;;;;;;;19.60;11.30;;;;;;;-147.86;100.00;46140.99;105950;1256;72631;-51
2023/12/16 10:32:43;;;;;;;18.70;11.50;;;;;;;-147.86;100.00;46143.34;105969;1254;61099;-53
2023/12/16 10:35:10;;;;;;;22.60;11.60;;;;;;;-147.86;100.00;46141.38;106026;1256;60438;-48
2023/12/16 10:37:47;;;;;;;17.90;11.80;;;;;;;-147.86;100.00;46144.13;105886;1256;73842;-52
2023/12/16 10:40:14;;;;;;;17.00;10.50;;;;;;;-147.86;100.00;46143.34;105978;1256;63236;-50
2023/12/16 10:42:42;;;;;;;18.50;11.70;;;;;;;-147.86;100.00;46144.91;105948;1257;72634;-48
2023/12/16 10:45:10;;;;;;;20.10;11.70;;;;;;;-147.86;100.00;46143.34;106024;1256;61454;-51
2023/12/16 10:47:38;;;;;;;23.20;12.50;;;;;;;-147.86;100.00;46142.56;105857;1267;60395;-49
2023/12/16 10:50:09;;;;;;;19.70;12.30;;;;;;;-147.86;100.00;46146.48;105750;1253;285842;-52
2023/12/16 10:52:41;;;;;;;21.80;12.60;;;;;;;-147.86;100.00;46143.74;105952;1255;64789;-49
2023/12/16 10:56:53;;;;;;;20.70;12.90;;;;;;;-147.86;100.00;46084.17;102424;1293;602710;-49